createdAt,value
2019-03-28T00:01:19.901Z,28.50
2019-03-28T00:03:48.367Z,24.77
2019-03-28T00:06:16.840Z,23.05
2019-03-28T00:08:45.311Z,25.80
2019-03-28T00:11:13.773Z,27.87
2019-03-28T00:13:42.232Z,27.27
2019-03-28T00:16:10.713Z,33.55
2019-03-28T00:18:39.183Z,26.55
2019-03-28T00:21:07.641Z,34.98
2019-03-28T00:23:40.767Z,29.77
2019-03-28T00:26:09.231Z,26.75
2019-03-28T00:28:37.698Z,32.70
2019-03-28T00:31:06.149Z,28.85
2019-03-28T00:33:34.620Z,29.30
2019-03-28T00:36:03.084Z,27.82
2019-03-28T00:38:31.709Z,28.52
2019-03-28T00:41:00.178Z,26.33
2019-03-28T00:43:28.641Z,31.48
2019-03-28T00:45:57.673Z,33.13
2019-03-28T00:48:27.677Z,28.30
2019-03-28T00:50:56.187Z,28.12
2019-03-28T00:53:24.673Z,28.77
2019-03-28T00:55:53.149Z,35.75
2019-03-28T00:58:21.611Z,33.28
2019-03-28T01:00:51.995Z,31.60
2019-03-28T01:03:20.438Z,32.15
2019-03-28T01:05:48.905Z,30.32
2019-03-28T01:08:17.448Z,42.30
2019-03-28T01:10:45.919Z,34.03
2019-03-28T01:13:14.381Z,34.63
2019-03-28T01:15:42.849Z,30.62
2019-03-28T01:18:12.489Z,35.00
2019-03-28T01:20:40.954Z,37.23
2019-03-28T01:23:09.421Z,34.75
2019-03-28T01:25:37.895Z,37.95
2019-03-28T01:28:06.363Z,35.58
2019-03-28T01:30:34.829Z,38.80
2019-03-28T01:33:03.299Z,34.73
2019-03-28T01:35:31.782Z,32.75
2019-03-28T01:38:00.235Z,34.18
2019-03-28T01:40:29.062Z,40.92
2019-03-28T01:42:57.529Z,41.25
2019-03-28T01:45:25.984Z,36.85
2019-03-28T01:47:55.526Z,34.35
2019-03-28T01:50:23.990Z,36.40
2019-03-28T01:52:52.456Z,38.60
2019-03-28T01:55:21.225Z,42.27
2019-03-28T01:57:49.976Z,34.85
2019-03-28T02:00:18.426Z,37.23
2019-03-28T02:02:46.894Z,33.92
2019-03-28T02:05:15.429Z,35.13
2019-03-28T02:07:43.893Z,39.88
2019-03-28T02:10:13.230Z,37.60
2019-03-28T02:12:41.713Z,35.03
2019-03-28T02:15:10.250Z,33.23
2019-03-28T02:17:38.705Z,34.75
2019-03-28T02:20:07.656Z,38.08
2019-03-28T02:22:37.404Z,37.48
2019-03-28T02:25:06.945Z,35.05
2019-03-28T02:27:35.399Z,37.05
2019-03-28T02:30:05.406Z,38.48
2019-03-28T02:32:34.215Z,39.50
2019-03-28T02:35:03.745Z,35.45
2019-03-28T02:37:32.252Z,38.33
2019-03-28T02:40:00.694Z,34.43
2019-03-28T02:42:29.158Z,35.38
2019-03-28T02:44:57.644Z,34.40
2019-03-28T02:47:26.102Z,38.20
2019-03-28T02:49:54.556Z,38.60
2019-03-28T02:52:23.025Z,38.80
2019-03-28T02:54:51.483Z,36.23
2019-03-28T02:57:19.954Z,42.65
2019-03-28T02:59:48.434Z,40.52
2019-03-28T03:02:16.896Z,35.08
2019-03-28T03:04:45.440Z,44.42
2019-03-28T03:07:13.981Z,41.20
2019-03-28T03:09:44.083Z,40.10
2019-03-28T03:12:12.859Z,42.53
2019-03-28T03:14:41.307Z,37.55
2019-03-28T03:17:09.770Z,36.73
2019-03-28T03:19:38.241Z,34.98
2019-03-28T03:22:06.695Z,35.10
2019-03-28T03:24:35.154Z,38.10
2019-03-28T03:27:03.631Z,41.53
2019-03-28T03:29:32.103Z,38.78
2019-03-28T03:32:02.687Z,40.30
2019-03-28T03:34:32.741Z,36.37
2019-03-28T03:37:01.354Z,40.38
2019-03-28T03:39:29.853Z,37.70
2019-03-28T03:41:58.315Z,40.58
2019-03-28T03:44:26.853Z,40.15
2019-03-28T03:46:55.311Z,37.65
2019-03-28T03:49:23.783Z,45.00
2019-03-28T03:51:52.241Z,42.53
2019-03-28T03:54:20.985Z,42.08
2019-03-28T03:56:51.712Z,40.50
2019-03-28T03:59:20.819Z,43.28
2019-03-28T04:01:49.349Z,38.13
2019-03-28T04:04:17.825Z,41.73
2019-03-28T04:06:47.360Z,44.20
2019-03-28T04:09:17.429Z,49.05
2019-03-28T04:11:45.893Z,41.98
2019-03-28T04:14:14.372Z,47.40
2019-03-28T04:16:42.841Z,38.75
2019-03-28T04:19:11.312Z,38.48
2019-03-28T04:21:39.780Z,41.88
2019-03-28T04:24:09.218Z,41.60
2019-03-28T04:26:37.679Z,40.40
2019-03-28T04:29:06.151Z,42.17
2019-03-28T04:31:34.605Z,42.23
2019-03-28T04:34:07.429Z,40.83
2019-03-28T04:36:33.401Z,39.15
2019-03-28T04:39:01.874Z,43.10
2019-03-28T04:41:30.801Z,43.48
2019-03-28T04:43:59.263Z,42.73
2019-03-28T04:46:27.725Z,40.83
2019-03-28T04:48:56.175Z,48.25
2019-03-28T04:51:24.637Z,49.95
2019-03-28T04:53:56.226Z,49.27
2019-03-28T04:56:23.601Z,48.30
2019-03-28T04:58:52.053Z,47.98
2019-03-28T05:01:20.527Z,44.93
2019-03-28T05:03:49.448Z,46.35
2019-03-28T05:06:18.330Z,44.40
2019-03-28T05:08:46.806Z,45.85
2019-03-28T05:11:15.261Z,42.03
2019-03-28T05:13:43.735Z,48.45
2019-03-28T05:16:12.190Z,42.25
2019-03-28T05:18:40.658Z,44.48
2019-03-28T05:21:09.125Z,47.17
2019-03-28T05:23:37.588Z,46.95
2019-03-28T05:26:06.046Z,46.40
2019-03-28T05:28:34.514Z,50.58
2019-03-28T05:31:02.978Z,44.85
2019-03-28T05:33:31.784Z,42.95
2019-03-28T05:36:04.336Z,47.53
2019-03-28T05:38:31.755Z,51.35
2019-03-28T05:41:00.218Z,43.28
2019-03-28T05:43:28.695Z,48.87
2019-03-28T05:45:57.152Z,48.25
2019-03-28T05:48:25.629Z,44.77
2019-03-28T05:50:54.089Z,48.15
2019-03-28T05:53:22.568Z,49.93
2019-03-28T05:55:51.092Z,46.37
2019-03-28T05:58:19.558Z,46.20
2019-03-28T06:00:51.161Z,46.63
2019-03-28T06:03:18.183Z,46.05
2019-03-28T06:05:46.653Z,50.25
2019-03-28T06:08:15.118Z,41.73
2019-03-28T06:10:43.566Z,47.93
2019-03-28T06:13:12.035Z,46.80
2019-03-28T06:15:41.205Z,43.95
2019-03-28T06:18:09.841Z,45.58
2019-03-28T06:20:38.298Z,57.70
2019-03-28T06:23:08.374Z,51.60
2019-03-28T06:25:40.803Z,48.73
2019-03-28T06:28:07.303Z,49.35
2019-03-28T06:30:35.753Z,49.63
2019-03-28T06:33:04.466Z,47.53
2019-03-28T06:35:34.005Z,47.58
2019-03-28T06:38:02.478Z,44.38
2019-03-28T06:40:31.445Z,53.08
2019-03-28T06:43:00.162Z,49.95
2019-03-28T06:45:28.633Z,49.33
2019-03-28T06:47:57.095Z,46.73
2019-03-28T06:50:25.553Z,52.85
2019-03-28T06:52:54.011Z,52.27
2019-03-28T06:55:24.046Z,45.20
2019-03-28T06:57:52.825Z,48.65
2019-03-28T07:00:22.760Z,54.55
2019-03-28T07:02:51.231Z,52.60
2019-03-28T07:05:19.694Z,48.25
2019-03-28T07:07:49.677Z,48.23
2019-03-28T07:10:18.148Z,52.78
2019-03-28T07:12:46.621Z,46.28
2019-03-28T07:15:15.153Z,48.90
2019-03-28T07:17:43.630Z,54.38
2019-03-28T07:20:12.155Z,57.80
2019-03-28T07:22:40.622Z,52.30
2019-03-28T07:25:09.149Z,45.35
2019-03-28T07:27:38.783Z,45.95
2019-03-28T07:30:09.901Z,46.25
2019-03-28T07:32:38.515Z,44.60
2019-03-28T07:35:07.274Z,44.48
2019-03-28T07:37:37.199Z,46.60
2019-03-28T07:40:06.469Z,43.60
2019-03-28T07:42:34.933Z,47.43
2019-03-28T07:45:04.768Z,42.93
2019-03-28T07:47:33.507Z,43.28
2019-03-28T07:50:01.957Z,44.13
2019-03-28T07:52:30.908Z,42.70
2019-03-28T07:54:59.376Z,35.92
2019-03-28T07:57:27.842Z,39.00
2019-03-28T08:00:04.054Z,35.50
2019-03-28T08:02:26.498Z,39.85
2019-03-28T08:04:54.962Z,44.33
2019-03-28T08:07:23.436Z,44.80
2019-03-28T08:09:51.898Z,34.55
2019-03-28T08:12:22.969Z,35.95
2019-03-28T08:14:51.388Z,35.13
2019-03-28T08:17:21.301Z,33.18
2019-03-28T08:19:49.834Z,37.50
2019-03-28T08:22:18.290Z,31.27
2019-03-28T08:24:46.755Z,33.80
2019-03-28T08:27:15.243Z,26.68
2019-03-28T08:29:43.755Z,33.73
2019-03-28T08:32:13.878Z,30.17
2019-03-28T08:34:42.346Z,28.83
2019-03-28T08:37:11.685Z,29.85
2019-03-28T08:39:40.413Z,33.35
2019-03-28T08:42:08.866Z,32.15
2019-03-28T08:44:37.920Z,36.33
2019-03-28T08:47:07.266Z,38.78
2019-03-28T08:49:35.732Z,31.77
2019-03-28T08:52:04.200Z,34.15
2019-03-28T08:54:32.660Z,36.20
2019-03-28T08:57:01.110Z,28.83
2019-03-28T08:59:29.650Z,32.40
2019-03-28T09:01:58.108Z,24.55
2019-03-28T09:04:26.648Z,23.85
2019-03-28T09:06:55.111Z,23.47
2019-03-28T09:09:23.569Z,26.00
2019-03-28T09:11:52.025Z,24.80
2019-03-28T09:14:20.498Z,29.02
2019-03-28T09:16:48.967Z,23.47
2019-03-28T09:19:17.410Z,21.48
2019-03-28T09:21:45.881Z,22.07
2019-03-28T09:24:14.346Z,19.55
2019-03-28T09:26:42.824Z,24.18
2019-03-28T09:29:14.000Z,29.18
2019-03-28T09:31:42.472Z,24.87
2019-03-28T09:34:10.917Z,18.87
2019-03-28T09:36:39.369Z,15.18
2019-03-28T09:39:08.971Z,15.32
2019-03-28T09:41:37.417Z,16.50
2019-03-28T09:44:05.882Z,16.57
2019-03-28T09:46:34.418Z,21.23
2019-03-28T09:49:02.867Z,17.92
2019-03-28T09:51:31.330Z,18.82
2019-03-28T09:54:01.385Z,19.82
2019-03-28T09:56:29.836Z,16.12
2019-03-28T09:59:00.335Z,23.38
2019-03-28T10:01:28.530Z,17.77
2019-03-28T10:03:56.987Z,21.20
2019-03-28T10:06:25.454Z,19.02
2019-03-28T10:08:53.919Z,16.35
2019-03-28T10:11:22.380Z,16.90
2019-03-28T10:13:50.833Z,17.30
2019-03-28T10:16:19.278Z,17.70
2019-03-28T10:18:47.738Z,16.55
2019-03-28T10:21:16.192Z,17.62
2019-03-28T10:23:44.645Z,19.90
2019-03-28T10:26:13.125Z,14.23
2019-03-28T10:28:41.583Z,19.55
2019-03-28T10:31:16.306Z,17.15
2019-03-28T10:33:40.198Z,18.17
2019-03-28T10:36:08.664Z,19.75
2019-03-28T10:38:37.291Z,17.00
2019-03-28T10:41:05.822Z,18.27
2019-03-28T10:43:34.284Z,16.87
2019-03-28T10:46:02.736Z,26.07
2019-03-28T10:48:32.467Z,19.75
2019-03-28T10:51:00.923Z,17.80
2019-03-28T10:53:30.252Z,19.00
2019-03-28T10:55:58.831Z,20.70
2019-03-28T10:58:27.877Z,22.95
2019-03-28T11:00:56.525Z,15.83
2019-03-28T11:03:25.330Z,13.03
2019-03-28T11:05:53.781Z,16.85
2019-03-28T11:08:22.252Z,16.45
2019-03-28T11:10:50.714Z,13.32
2019-03-28T11:13:19.210Z,16.35
2019-03-28T11:15:47.738Z,10.30
2019-03-28T11:18:16.202Z,13.25
2019-03-28T11:20:44.660Z,13.62
2019-03-28T11:23:13.114Z,18.75
2019-03-28T11:25:41.571Z,11.43
2019-03-28T11:28:10.042Z,15.13
2019-03-28T11:30:38.559Z,14.20
2019-03-28T11:33:07.094Z,16.05
2019-03-28T11:35:35.554Z,14.98
2019-03-28T11:38:04.014Z,13.40
2019-03-28T11:40:32.531Z,17.25
2019-03-28T11:43:00.998Z,18.02
2019-03-28T11:45:29.457Z,17.57
2019-03-28T11:47:59.509Z,15.20
2019-03-28T11:50:29.594Z,15.98
2019-03-28T11:52:58.055Z,13.55
2019-03-28T11:55:26.514Z,14.70
2019-03-28T11:57:56.535Z,17.10
2019-03-28T12:00:25.314Z,17.17
2019-03-28T12:02:53.766Z,14.93
2019-03-28T12:05:22.250Z,21.93
2019-03-28T12:07:50.703Z,15.98
2019-03-28T12:10:19.230Z,17.77
2019-03-28T12:12:47.689Z,18.60
2019-03-28T12:15:16.214Z,16.90
2019-03-28T12:17:44.665Z,13.45
2019-03-28T12:20:13.124Z,11.18
2019-03-28T12:22:41.573Z,11.68
2019-03-28T12:25:10.458Z,13.10
2019-03-28T12:27:40.097Z,13.68
2019-03-28T12:30:10.234Z,13.90
2019-03-28T12:32:39.354Z,17.05
2019-03-28T12:35:10.107Z,14.63
2019-03-28T12:37:39.729Z,16.73
2019-03-28T12:40:10.596Z,14.35
2019-03-28T12:42:39.067Z,13.35
2019-03-28T12:45:09.123Z,14.55
2019-03-28T12:47:42.659Z,16.35
2019-03-28T12:50:11.411Z,14.10
2019-03-28T12:52:39.869Z,13.15
2019-03-28T12:55:09.969Z,14.33
2019-03-28T12:57:38.434Z,12.13
2019-03-28T13:00:07.659Z,18.65
2019-03-28T13:02:36.115Z,18.40
2019-03-28T13:05:06.259Z,16.60
2019-03-28T13:07:34.726Z,17.27
2019-03-28T13:10:05.121Z,14.83
2019-03-28T13:12:33.659Z,13.30
2019-03-28T13:15:02.201Z,12.90
2019-03-28T13:17:31.085Z,11.85
2019-03-28T13:19:59.545Z,9.55
2019-03-28T13:22:28.561Z,11.75
2019-03-28T13:24:57.126Z,14.70
2019-03-28T13:27:25.554Z,12.15
2019-03-28T13:29:55.162Z,11.15
2019-03-28T13:32:23.749Z,12.55
2019-03-28T13:34:52.746Z,9.53
2019-03-28T13:37:21.472Z,11.78
2019-03-28T13:39:49.905Z,12.93
2019-03-28T13:42:18.331Z,13.08
2019-03-28T13:44:46.760Z,18.80
2019-03-28T13:47:15.205Z,16.02
2019-03-28T13:49:44.606Z,14.90
2019-03-28T13:52:13.132Z,14.13
2019-03-28T13:54:43.103Z,15.40
2019-03-28T13:57:11.538Z,13.43
2019-03-28T13:59:41.192Z,13.95
2019-03-28T14:02:09.628Z,12.55
2019-03-28T14:04:38.408Z,12.98
2019-03-28T14:07:06.844Z,13.32
2019-03-28T14:09:35.281Z,16.27
2019-03-28T14:12:05.412Z,11.88
2019-03-28T14:14:33.844Z,9.95
2019-03-28T14:17:02.274Z,9.25
2019-03-28T14:19:30.763Z,13.72
2019-03-28T14:21:59.210Z,11.10
2019-03-28T14:24:27.646Z,15.40
2019-03-28T14:26:56.073Z,17.17
2019-03-28T14:29:24.513Z,13.10
2019-03-28T14:31:52.942Z,14.87
2019-03-28T14:34:21.369Z,10.93
2019-03-28T14:36:49.806Z,12.50
2019-03-28T14:39:18.240Z,11.97
2019-03-28T14:41:47.552Z,12.43
2019-03-28T14:44:16.062Z,12.00
2019-03-28T14:46:44.477Z,13.25
2019-03-28T14:49:13.065Z,9.45
2019-03-28T14:51:41.720Z,9.58
2019-03-28T14:54:10.709Z,10.78
2019-03-28T14:56:40.052Z,14.60
2019-03-28T14:59:08.745Z,12.33
2019-03-28T15:01:37.184Z,12.60
2019-03-28T15:04:06.185Z,22.13
2019-03-28T15:06:37.536Z,10.93
2019-03-28T15:09:07.602Z,13.22
2019-03-28T15:11:36.024Z,10.80
2019-03-28T15:14:04.528Z,13.43
2019-03-28T15:16:32.969Z,11.10
2019-03-28T15:19:01.412Z,9.50
2019-03-28T15:21:30.908Z,10.50
2019-03-28T15:23:59.336Z,9.93
2019-03-28T15:26:30.253Z,12.15
2019-03-28T15:28:59.045Z,12.70
2019-03-28T15:31:27.473Z,13.50
2019-03-28T15:33:55.913Z,12.07
2019-03-28T15:36:24.355Z,15.03
2019-03-28T15:38:52.865Z,11.88
2019-03-28T15:41:21.299Z,10.35
2019-03-28T15:43:49.733Z,11.83
2019-03-28T15:46:18.172Z,20.10
2019-03-28T15:48:46.681Z,13.35
2019-03-28T15:51:15.122Z,10.95
2019-03-28T15:53:43.546Z,14.47
2019-03-28T15:56:11.978Z,11.15
2019-03-28T15:58:40.405Z,11.15
2019-03-28T16:01:08.840Z,14.05
2019-03-28T16:03:37.266Z,11.35
2019-03-28T16:06:05.706Z,12.60
2019-03-28T16:08:34.138Z,13.45
2019-03-28T16:11:02.578Z,12.20
2019-03-28T16:13:31.022Z,13.72
2019-03-28T16:15:59.457Z,13.90
2019-03-28T16:18:27.884Z,11.55
2019-03-28T16:20:56.335Z,14.25
2019-03-28T16:23:26.601Z,15.18
2019-03-28T16:25:55.949Z,12.20
2019-03-28T16:28:24.389Z,11.10
2019-03-28T16:30:52.814Z,12.90
2019-03-28T16:33:21.283Z,15.70
2019-03-28T16:35:49.789Z,14.47
2019-03-28T16:38:25.753Z,15.58
2019-03-28T16:41:15.459Z,15.65
2019-03-28T16:43:46.508Z,13.15
2019-03-28T16:46:15.838Z,15.28
2019-03-28T16:48:44.996Z,16.25
2019-03-28T16:51:13.421Z,13.40
2019-03-28T16:53:45.681Z,16.15
2019-03-28T16:56:15.558Z,15.05
2019-03-28T16:58:44.128Z,16.57
2019-03-28T17:01:12.568Z,13.03
2019-03-28T17:03:43.800Z,15.93
2019-03-28T17:06:14.982Z,12.95
2019-03-28T17:08:45.227Z,14.65
2019-03-28T17:11:13.659Z,15.30
2019-03-28T17:13:46.366Z,14.78
2019-03-28T17:16:14.741Z,21.27
2019-03-28T17:18:44.122Z,17.32
2019-03-28T17:21:15.117Z,14.90
2019-03-28T17:23:44.641Z,15.88
2019-03-28T17:26:13.140Z,21.48
2019-03-28T17:28:43.672Z,16.73
2019-03-28T17:31:13.238Z,17.52
2019-03-28T17:33:42.192Z,15.28
2019-03-28T17:36:10.636Z,18.82
2019-03-28T17:38:39.610Z,15.98
2019-03-28T17:41:08.190Z,18.67
2019-03-28T17:43:36.629Z,18.50
2019-03-28T17:46:05.133Z,19.05
2019-03-28T17:48:33.579Z,19.45
2019-03-28T17:51:02.016Z,18.90
2019-03-28T17:53:30.709Z,19.52
2019-03-28T17:55:59.210Z,22.70
2019-03-28T17:58:27.733Z,21.35
2019-03-28T18:00:56.165Z,21.97
2019-03-28T18:03:31.022Z,19.17
2019-03-28T18:05:58.423Z,17.30
2019-03-28T18:08:27.433Z,18.52
2019-03-28T18:10:55.966Z,19.52
2019-03-28T18:13:24.785Z,17.75
2019-03-28T18:15:53.217Z,21.07
2019-03-28T18:18:21.661Z,18.75
2019-03-28T18:20:50.097Z,23.75
2019-03-28T18:23:18.613Z,19.10
2019-03-28T18:25:47.066Z,21.55
2019-03-28T18:28:15.837Z,18.05
2019-03-28T18:30:44.293Z,19.42
2019-03-28T18:33:13.170Z,19.57
2019-03-28T18:35:41.617Z,19.70
2019-03-28T18:38:11.249Z,20.62
2019-03-28T18:40:39.674Z,24.12
2019-03-28T18:43:08.129Z,19.65
2019-03-28T18:45:36.558Z,24.65
2019-03-28T18:48:05.014Z,22.75
2019-03-28T18:50:34.097Z,20.80
2019-03-28T18:53:04.274Z,21.97
2019-03-28T18:55:34.807Z,20.12
2019-03-28T18:58:03.727Z,26.97
2019-03-28T19:00:32.217Z,16.97
2019-03-28T19:03:00.647Z,20.23
2019-03-28T19:05:29.097Z,22.02
2019-03-28T19:07:57.537Z,21.12
2019-03-28T19:10:26.065Z,25.35
2019-03-28T19:12:54.508Z,19.80
2019-03-28T19:15:23.728Z,21.70
2019-03-28T19:17:52.284Z,18.73
2019-03-28T19:20:20.976Z,23.12
2019-03-28T19:22:50.317Z,20.60
2019-03-28T19:25:19.038Z,19.85
2019-03-28T19:27:47.482Z,21.42
2019-03-28T19:30:17.465Z,22.67
2019-03-28T19:32:46.870Z,18.50
2019-03-28T19:35:15.301Z,22.22
2019-03-28T19:37:46.463Z,23.83
2019-03-28T19:40:16.149Z,23.18
2019-03-28T19:42:44.628Z,20.48
2019-03-28T19:45:14.622Z,24.40
2019-03-28T19:47:43.052Z,21.60
2019-03-28T19:50:13.030Z,21.05
2019-03-28T19:52:41.771Z,21.15
2019-03-28T19:55:11.728Z,19.80
2019-03-28T19:57:40.177Z,23.95
2019-03-28T20:00:11.101Z,19.65
2019-03-28T20:02:39.880Z,23.50
2019-03-28T20:05:08.485Z,21.75
2019-03-28T20:07:36.938Z,26.70
2019-03-28T20:10:15.822Z,23.90
2019-03-28T20:12:35.785Z,23.42
2019-03-28T20:15:05.502Z,31.48
2019-03-28T20:17:34.001Z,29.55
2019-03-28T20:20:02.450Z,24.47
2019-03-28T20:22:31.018Z,29.15
2019-03-28T20:25:02.698Z,24.18
2019-03-28T20:27:31.450Z,27.32
2019-03-28T20:30:00.899Z,25.77
2019-03-28T20:32:31.255Z,34.65
2019-03-28T20:35:01.598Z,25.82
2019-03-28T20:37:30.037Z,29.55
2019-03-28T20:39:58.775Z,27.58
2019-03-28T20:42:29.255Z,29.32
2019-03-28T20:44:57.921Z,24.55
2019-03-28T20:47:27.259Z,29.65
2019-03-28T20:49:56.751Z,24.63
2019-03-28T20:52:25.190Z,23.45
2019-03-28T20:54:53.639Z,28.38
2019-03-28T20:57:22.346Z,28.77
2019-03-28T20:59:55.411Z,30.72
2019-03-28T21:02:25.553Z,27.60
2019-03-28T21:04:54.565Z,27.05
2019-03-28T21:07:23.018Z,25.45
2019-03-28T21:09:51.447Z,30.08
2019-03-28T21:12:19.873Z,31.00
2019-03-28T21:14:48.389Z,30.10
2019-03-28T21:17:16.829Z,33.48
2019-03-28T21:19:45.375Z,28.80
2019-03-28T21:22:13.858Z,35.50
2019-03-28T21:24:42.380Z,29.52
2019-03-28T21:27:10.818Z,31.20
2019-03-28T21:29:48.710Z,36.60
2019-03-28T21:32:09.470Z,32.65
2019-03-28T21:34:37.896Z,31.23
2019-03-28T21:37:06.843Z,34.98
2019-03-28T21:39:39.787Z,39.67
2019-03-28T21:42:07.294Z,38.70
2019-03-28T21:44:41.751Z,39.73
2019-03-28T21:47:10.198Z,31.42
2019-03-28T21:49:38.628Z,33.30
2019-03-28T21:52:07.623Z,37.17
2019-03-28T21:54:36.407Z,34.98
2019-03-28T21:57:04.863Z,37.00
2019-03-28T21:59:33.344Z,35.68
2019-03-28T22:02:01.798Z,32.78
2019-03-28T22:04:30.230Z,37.93
2019-03-28T22:06:58.661Z,37.00
2019-03-28T22:09:27.089Z,33.15
2019-03-28T22:11:55.539Z,33.80
2019-03-28T22:14:23.964Z,39.58
2019-03-28T22:16:52.403Z,38.67
2019-03-28T22:19:20.837Z,41.85
2019-03-28T22:21:49.377Z,46.18
2019-03-28T22:24:17.817Z,42.48
2019-03-28T22:26:47.884Z,48.92
2019-03-28T22:29:16.327Z,46.90
2019-03-28T22:31:44.770Z,42.03
2019-03-28T22:34:13.213Z,43.85
2019-03-28T22:36:41.659Z,48.13
2019-03-28T22:39:12.162Z,42.75
2019-03-28T22:41:41.450Z,44.58
2019-03-28T22:44:09.890Z,41.02
2019-03-28T22:46:39.718Z,44.33
2019-03-28T22:49:08.451Z,44.88
2019-03-28T22:51:36.891Z,41.95
2019-03-28T22:54:05.337Z,38.92
2019-03-28T22:56:33.853Z,39.83
2019-03-28T22:59:03.010Z,42.67
2019-03-28T23:01:32.356Z,38.58
2019-03-28T23:04:00.797Z,40.12
2019-03-28T23:06:29.245Z,40.63
2019-03-28T23:08:58.300Z,40.12
2019-03-28T23:11:27.505Z,41.23
2019-03-28T23:13:55.938Z,43.58
2019-03-28T23:16:24.397Z,43.83
2019-03-28T23:18:52.834Z,40.33
2019-03-28T23:21:21.268Z,34.92
2019-03-28T23:23:49.713Z,36.85
2019-03-28T23:26:18.154Z,38.30
2019-03-28T23:28:46.593Z,36.05
2019-03-28T23:31:15.108Z,36.77
2019-03-28T23:33:43.627Z,34.38
2019-03-28T23:36:12.140Z,32.65
2019-03-28T23:38:40.587Z,36.42
2019-03-28T23:41:09.029Z,37.40
2019-03-28T23:43:37.469Z,33.30
2019-03-28T23:46:05.911Z,36.50
2019-03-28T23:48:34.354Z,33.05
2019-03-28T23:51:02.789Z,33.23
2019-03-28T23:53:31.373Z,28.45
2019-03-28T23:56:00.982Z,30.77
2019-03-28T23:58:29.426Z,27.82
